Time;durP1;ratioP1;P1;durP2;ratioP2;P2;SDS_P1;SDS_P2;PMS_P1;PMS_P2;Temp;Humidity;BMP_temperature;BMP_pressure;BME280_temperature;BME280_humidity;BME280_pressure;Samples;Min_cycle;Max_cycle;Signal;HPM_P1;HPM_P2
2022/11/19 00:01:17;;;;;;;23.90;6.32;;;;;;;11.83;79.36;98027.00;5093463;28;20031;-48
2022/11/19 00:03:43;;;;;;;75.70;8.75;;;;;;;11.74;79.84;98029.13;5094883;28;20032;-48
2022/11/19 00:06:11;;;;;;;1999.90;222.98;;;;;;;11.64;79.04;98033.31;5094464;28;20028;-48
2022/11/19 00:08:37;;;;;;;635.10;61.75;;;;;;;11.50;79.19;98037.94;5093128;28;20035;-48
2022/11/19 00:11:04;;;;;;;532.67;42.22;;;;;;;11.42;79.18;98038.25;5093091;28;20025;-48
2022/11/19 00:13:30;;;;;;;766.40;64.28;;;;;;;11.47;80.32;98039.22;5094302;28;20111;-48
2022/11/19 00:16:01;;;;;;;155.63;16.45;;;;;;;11.67;80.20;98038.13;5092940;28;20054;-48
2022/11/19 00:18:27;;;;;;;167.18;14.90;;;;;;;11.68;79.94;98022.13;5093708;28;20028;-48
2022/11/19 00:20:55;;;;;;;726.42;74.88;;;;;;;11.66;79.36;98024.19;5092949;28;20115;-48
2022/11/19 00:23:22;;;;;;;841.55;89.57;;;;;;;11.76;79.48;98029.69;5093847;28;20557;-48
2022/11/19 00:25:48;;;;;;;364.77;30.35;;;;;;;11.75;79.36;98025.50;5094124;28;20489;-48
2022/11/19 00:28:13;;;;;;;220.32;20.65;;;;;;;11.84;79.93;98023.31;5092788;28;20042;-48
2022/11/19 00:30:39;;;;;;;57.92;10.18;;;;;;;12.07;79.15;98027.06;5094052;28;20024;-48
2022/11/19 00:33:04;;;;;;;42.67;8.60;;;;;;;12.30;78.65;98024.47;5094054;28;20507;-48
2022/11/19 00:35:31;;;;;;;48.35;9.02;;;;;;;12.53;78.42;98018.41;5092544;28;20169;-48
2022/11/19 00:37:57;;;;;;;30.10;8.40;;;;;;;12.70;78.04;98020.38;5092605;28;20055;-48
2022/11/19 00:40:22;;;;;;;22.70;7.43;;;;;;;12.67;77.23;98018.97;5093907;28;20109;-48
2022/11/19 00:43:45;;;;;;;21.40;8.05;;;;;;;12.61;76.83;98016.47;5092511;28;20378;-48
2022/11/19 00:45:33;;;;;;;12.68;6.88;;;;;;;12.28;76.71;98008.13;5093602;28;20429;-48
2022/11/19 00:47:59;;;;;;;14.45;7.10;;;;;;;11.94;77.10;98004.41;5092430;28;20024;-48
2022/11/19 00:50:24;;;;;;;36.90;9.00;;;;;;;11.61;77.24;98018.81;5092321;28;20024;-48
2022/11/19 00:52:50;;;;;;;12.95;7.95;;;;;;;11.23;77.80;98011.19;5092386;28;20024;-48
2022/11/19 00:55:16;;;;;;;28.15;7.63;;;;;;;11.14;79.25;98008.88;5092166;28;20398;-48
2022/11/19 00:57:41;;;;;;;15.50;7.75;;;;;;;11.28;79.65;98008.72;5093602;28;20112;-48
2022/11/19 01:00:07;;;;;;;16.77;7.93;;;;;;;11.31;79.25;98005.66;5092164;28;20031;-48
2022/11/19 01:02:33;;;;;;;12.60;7.53;;;;;;;11.24;79.36;98010.19;5093450;28;20028;-48
2022/11/19 01:04:59;;;;;;;15.95;7.82;;;;;;;11.14;79.54;98010.72;5092097;28;20035;-48
2022/11/19 01:07:24;;;;;;;16.35;10.15;;;;;;;11.05;79.87;97998.91;5093445;28;20012;-48
2022/11/19 01:09:50;;;;;;;31.00;10.32;;;;;;;11.05;79.97;98007.59;5092046;28;20474;-48
2022/11/19 01:12:15;;;;;;;17.88;8.73;;;;;;;11.00;79.85;98005.59;5091956;28;20031;-48
2022/11/19 01:14:41;;;;;;;12.35;8.50;;;;;;;10.91;80.14;98003.50;5091846;28;20562;-48
2022/11/19 01:17:06;;;;;;;23.00;10.45;;;;;;;10.91;80.64;98001.69;5093188;28;20020;-48
2022/11/19 01:19:32;;;;;;;23.27;11.18;;;;;;;10.95;79.98;98002.84;5091968;28;20501;-48
2022/11/19 01:21:58;;;;;;;19.85;12.38;;;;;;;10.85;79.62;97999.94;5091777;28;20055;-49
2022/11/19 01:24:23;;;;;;;18.10;14.93;;;;;;;10.74;79.82;98004.06;5092792;28;20476;-48
2022/11/19 01:26:49;;;;;;;16.88;10.98;;;;;;;10.64;80.29;98002.97;5093008;28;20019;-48
2022/11/19 01:29:14;;;;;;;19.05;12.77;;;;;;;10.79;80.82;98000.81;5091547;28;20473;-48
2022/11/19 01:31:40;;;;;;;22.63;13.93;;;;;;;10.99;80.48;97996.13;5092900;28;20023;-48
2022/11/19 01:34:06;;;;;;;11.05;9.10;;;;;;;10.95;79.39;97996.81;5092819;28;20607;-48
2022/11/19 01:36:31;;;;;;;13.27;9.05;;;;;;;10.75;79.22;97999.63;5092744;28;20028;-48
2022/11/19 01:38:57;;;;;;;13.77;10.05;;;;;;;10.73;79.96;97993.81;5074657;28;20032;-48
2022/11/19 01:41:30;;;;;;;16.20;10.10;;;;;;;10.70;79.92;98000.28;5091354;28;20021;-48
2022/11/19 01:43:58;;;;;;;11.73;7.72;;;;;;;10.77;80.08;97993.16;5092699;28;20058;-48
2022/11/19 01:46:43;;;;;;;7.72;6.35;;;;;;;10.71;79.95;97990.59;5091281;28;20028;-48
2022/11/19 01:49:16;;;;;;;17.30;12.55;;;;;;;10.71;80.45;97996.66;5091322;28;20035;-48
2022/11/19 01:51:54;;;;;;;25.02;14.35;;;;;;;10.93;80.89;97988.34;5091198;28;20024;-48
2022/11/19 01:54:43;;;;;;;18.73;11.70;;;;;;;11.08;80.27;97996.63;5091285;28;20035;-48
2022/11/19 01:57:13;;;;;;;15.73;12.27;;;;;;;11.19;79.94;97989.84;5091163;28;20517;-48
2022/11/19 01:59:42;;;;;;;15.38;11.32;;;;;;;11.18;79.50;97985.59;5092422;28;20039;-48
2022/11/19 02:02:08;;;;;;;15.02;10.98;;;;;;;11.18;81.20;97983.78;5091004;28;20077;-48
2022/11/19 02:04:35;;;;;;;24.05;14.88;;;;;;;11.10;81.10;97981.44;5090948;28;20036;-48
2022/11/19 02:07:01;;;;;;;33.42;18.10;;;;;;;10.89;81.81;97985.34;5090891;28;20017;-48
2022/11/19 02:09:27;;;;;;;20.48;14.85;;;;;;;10.65;82.82;97980.97;5090909;28;20031;-48
2022/11/19 02:12:24;;;;;;;21.58;12.27;;;;;;;10.40;82.64;97976.56;5090861;28;20028;-48
2022/11/19 02:14:59;;;;;;;17.08;9.85;;;;;;;10.35;83.10;97971.97;5090765;28;20573;-48
2022/11/19 02:17:24;;;;;;;17.57;11.40;;;;;;;10.49;83.21;97969.22;5092145;28;20027;-48
2022/11/19 02:20:09;;;;;;;19.17;14.35;;;;;;;10.36;81.68;97967.50;5092103;28;20100;-48
2022/11/19 02:23:00;;;;;;;17.90;11.07;;;;;;;10.33;82.12;97970.59;5092189;28;20093;-48
2022/11/19 02:25:46;;;;;;;18.30;11.15;;;;;;;10.34;82.09;97965.13;5090536;28;20278;-48
2022/11/19 02:28:30;;;;;;;19.73;11.20;;;;;;;10.25;81.46;97962.97;5092108;28;20028;-48
2022/11/19 02:31:09;;;;;;;22.17;12.43;;;;;;;10.26;81.94;97957.50;5091933;28;20501;-48
2022/11/19 02:33:48;;;;;;;14.27;12.00;;;;;;;10.44;82.13;97956.75;5091913;28;20516;-48
2022/11/19 02:36:21;;;;;;;18.75;14.30;;;;;;;10.43;81.48;97957.78;5092082;28;20036;-48
2022/11/19 02:39:19;;;;;;;30.58;19.98;;;;;;;10.33;80.89;97954.84;5091918;28;20028;-48
2022/11/19 02:41:55;;;;;;;29.08;24.25;;;;;;;10.27;81.14;97958.31;5084403;28;20122;-48
2022/11/19 02:47:10;;;;;;;;;;;;;;;10.11;82.12;97964.91;5098998;28;19919;-48
2022/11/19 02:49:42;;;;;;;18.60;14.73;;;;;;;10.01;81.68;97965.38;5097209;28;19916;-48
2022/11/19 02:52:08;;;;;;;44.13;26.90;;;;;;;9.95;82.00;97959.16;5098538;28;20024;-48
2022/11/19 02:54:33;;;;;;;21.35;14.85;;;;;;;10.10;81.83;97958.88;5098440;28;20077;-48
2022/11/19 02:56:59;;;;;;;23.20;20.02;;;;;;;10.10;80.99;97963.28;5097116;28;20024;-48
2022/11/19 03:05:06;;;;;;;16.30;10.23;;;;;;;10.41;80.65;97961.63;5098652;28;20035;-48
2022/11/19 03:07:32;;;;;;;14.23;11.93;;;;;;;10.44;79.79;97967.22;5098462;28;20081;-48
2022/11/19 03:10:01;;;;;;;15.60;10.70;;;;;;;10.38;79.52;97966.31;5098364;28;20024;-48
2022/11/19 03:12:33;;;;;;;13.55;9.77;;;;;;;10.40;79.09;97966.06;5096984;28;20039;-48
2022/11/19 03:18:12;;;;;;;13.77;9.45;;;;;;;10.49;79.18;97967.41;5098592;28;20144;-48
2022/11/19 03:20:41;;;;;;;16.88;11.88;;;;;;;10.72;78.47;97971.19;5086171;28;20465;-48
2022/11/19 03:23:22;;;;;;;20.85;11.40;;;;;;;10.84;77.55;97964.19;5098208;28;20461;-48
2022/11/19 03:25:54;;;;;;;14.38;9.15;;;;;;;10.92;77.10;97966.50;5098236;28;20033;-48
2022/11/19 03:28:29;;;;;;;15.32;8.88;;;;;;;11.03;76.56;97961.53;5098237;28;20028;-48
2022/11/19 03:30:57;;;;;;;15.15;9.95;;;;;;;11.15;76.47;97962.44;5096916;28;20032;-48
2022/11/19 03:33:33;;;;;;;19.38;10.63;;;;;;;11.20;76.24;97960.72;5096996;28;20090;-48
2022/11/19 03:36:06;;;;;;;17.67;11.90;;;;;;;11.41;75.75;97961.28;5096711;28;20020;-48
2022/11/19 03:38:39;;;;;;;13.18;9.82;;;;;;;11.55;75.51;97967.13;5098165;28;20032;-48
2022/11/19 03:41:06;;;;;;;12.70;9.70;;;;;;;11.62;74.98;97972.31;5098051;28;20056;-48
2022/11/19 03:43:37;;;;;;;13.18;9.45;;;;;;;11.77;74.82;97975.28;5079800;28;20043;-48
2022/11/19 03:46:05;;;;;;;14.15;9.95;;;;;;;11.97;73.94;97981.09;5098081;28;20082;-49
2022/11/19 03:48:35;;;;;;;15.60;10.63;;;;;;;12.13;73.22;97984.06;5098061;28;20054;-48
2022/11/19 03:51:12;;;;;;;12.65;9.23;;;;;;;12.36;72.40;97988.56;5096628;28;20043;-48
2022/11/19 03:53:38;;;;;;;15.07;9.75;;;;;;;12.49;72.21;97993.56;5092699;28;20089;-48
2022/11/19 03:56:09;;;;;;;17.08;9.80;;;;;;;12.54;70.71;97985.81;5093286;28;20506;-49
2022/11/19 03:58:42;;;;;;;14.85;9.95;;;;;;;12.55;70.40;97986.59;5094715;28;20027;-48
2022/11/19 04:01:09;;;;;;;12.55;8.57;;;;;;;12.47;70.46;97990.38;5094940;28;20028;-49
2022/11/19 04:03:34;;;;;;;15.25;9.43;;;;;;;12.39;69.98;97990.72;5094620;28;20497;-48
2022/11/19 04:06:01;;;;;;;12.07;8.52;;;;;;;12.31;69.65;97994.50;5093178;28;20417;-48
2022/11/19 04:08:26;;;;;;;12.25;8.30;;;;;;;12.07;68.55;97998.94;5093216;28;20028;-48
2022/11/19 04:10:52;;;;;;;11.30;8.30;;;;;;;11.78;69.12;97998.72;5094461;28;20045;-48
2022/11/19 04:13:18;;;;;;;9.52;6.72;;;;;;;11.62;69.51;98001.22;5076231;28;20028;-48
2022/11/19 04:15:44;;;;;;;13.70;8.57;;;;;;;11.50;69.70;98001.97;5092979;28;20032;-48
2022/11/19 04:18:10;;;;;;;15.15;7.15;;;;;;;11.51;70.17;98010.63;5092994;28;20043;-48
2022/11/19 04:20:36;;;;;;;10.45;9.35;;;;;;;11.68;70.48;98016.88;5094300;28;20024;-48
2022/11/19 04:23:01;;;;;;;15.43;7.55;;;;;;;11.81;70.22;98015.88;5094503;28;20036;-48
2022/11/19 04:25:27;;;;;;;9.20;6.63;;;;;;;11.95;69.58;98009.44;5093991;28;20059;-48
2022/11/19 04:27:52;;;;;;;10.15;6.57;;;;;;;12.12;69.39;98014.06;5094197;28;20016;-48
2022/11/19 04:30:18;;;;;;;9.45;5.68;;;;;;;12.21;68.74;98012.66;5094121;28;20028;-48
2022/11/19 04:32:44;;;;;;;13.60;6.00;;;;;;;12.22;67.94;98019.53;5092695;28;20028;-48
2022/11/19 04:35:09;;;;;;;15.00;5.97;;;;;;;12.16;67.89;98028.34;5092611;28;20435;-48
2022/11/19 04:37:35;;;;;;;7.38;4.55;;;;;;;12.16;67.84;98031.78;5092642;28;20035;-48
2022/11/19 04:40:01;;;;;;;11.45;5.20;;;;;;;12.08;67.26;98031.31;5092549;28;20028;-48
2022/11/19 04:42:27;;;;;;;7.72;5.57;;;;;;;11.94;67.58;98033.34;5092846;28;20024;-48
2022/11/19 04:44:53;;;;;;;7.57;4.65;;;;;;;11.90;68.10;98032.19;5093855;28;20485;-48
2022/11/19 04:47:19;;;;;;;11.57;4.63;;;;;;;11.93;67.83;98035.16;5092452;28;20059;-48
2022/11/19 04:49:44;;;;;;;6.85;4.43;;;;;;;11.89;67.64;98031.38;5092408;28;20521;-48
2022/11/19 04:52:10;;;;;;;14.57;5.18;;;;;;;11.79;67.43;98028.44;5093966;28;20048;-48
2022/11/19 04:54:35;;;;;;;14.02;4.45;;;;;;;11.66;67.53;98032.06;5093549;28;20478;-48
2022/11/19 04:57:01;;;;;;;11.68;4.35;;;;;;;11.52;68.01;98030.66;5093607;28;20386;-48
2022/11/19 04:59:27;;;;;;;8.57;3.92;;;;;;;11.40;68.33;98038.47;5093550;28;20028;-48
2022/11/19 05:01:52;;;;;;;8.98;3.80;;;;;;;11.30;68.42;98046.09;5092242;28;20025;-48
2022/11/19 05:04:18;;;;;;;9.40;3.70;;;;;;;11.43;69.07;98052.97;5093076;28;20031;-48
2022/11/19 05:06:44;;;;;;;6.40;3.95;;;;;;;11.31;68.59;98059.00;5093364;28;20032;-48
2022/11/19 05:09:10;;;;;;;12.38;3.70;;;;;;;11.35;68.89;98059.38;5092009;28;20059;-48
2022/11/19 05:11:35;;;;;;;5.20;3.05;;;;;;;11.41;68.60;98055.84;5093336;28;20493;-48
2022/11/19 05:14:01;;;;;;;10.35;3.83;;;;;;;11.42;68.70;98060.06;5091907;28;20031;-48
2022/11/19 05:16:27;;;;;;;11.27;3.63;;;;;;;11.53;68.73;98061.97;5093068;28;20496;-48
2022/11/19 05:18:53;;;;;;;12.02;3.67;;;;;;;11.57;68.38;98054.44;5093171;28;20048;-48
2022/11/19 05:21:18;;;;;;;6.63;3.88;;;;;;;11.49;68.09;98054.72;5074881;28;20533;-49
2022/11/19 05:23:47;;;;;;;7.22;3.42;;;;;;;11.33;67.89;98059.59;5091628;28;20063;-48
2022/11/19 05:26:12;;;;;;;7.15;3.63;;;;;;;11.21;68.05;98058.72;5092994;28;20024;-48
2022/11/19 05:28:38;;;;;;;4.88;3.38;;;;;;;11.13;68.55;98064.25;5092978;28;20072;-48
2022/11/19 05:31:04;;;;;;;6.00;3.78;;;;;;;11.06;68.72;98058.28;5092879;28;20042;-48
2022/11/19 05:33:29;;;;;;;9.10;3.42;;;;;;;10.98;68.69;98061.97;5092895;28;20099;-48
2022/11/19 05:35:55;;;;;;;5.30;3.00;;;;;;;10.97;69.02;98063.81;5091383;28;20020;-48
2022/11/19 05:38:21;;;;;;;5.82;3.33;;;;;;;10.94;69.04;98060.81;5092845;28;20028;-48
2022/11/19 05:40:46;;;;;;;7.40;3.28;;;;;;;10.91;69.25;98059.44;5074605;28;20028;-48
2022/11/19 05:43:12;;;;;;;8.57;2.88;;;;;;;11.05;69.28;98062.72;5091344;28;20153;-48
2022/11/19 05:45:39;;;;;;;8.48;3.08;;;;;;;11.19;68.45;98053.69;5092692;28;20020;-48
2022/11/19 05:48:05;;;;;;;8.85;3.53;;;;;;;11.29;68.23;98052.34;5074464;28;20023;-49
2022/11/19 05:50:31;;;;;;;14.90;3.78;;;;;;;11.25;68.00;98046.75;5092476;28;20027;-49
2022/11/19 05:52:57;;;;;;;9.07;3.65;;;;;;;11.22;68.48;98056.88;5092540;28;20028;-48
2022/11/19 05:55:23;;;;;;;4.70;3.05;;;;;;;11.16;68.29;98059.34;5092363;28;20019;-48
2022/11/19 05:57:49;;;;;;;7.20;4.10;;;;;;;11.20;68.42;98059.72;5092451;28;20024;-48
2022/11/19 06:00:18;;;;;;;6.55;3.60;;;;;;;11.24;68.38;98058.25;5091150;28;20374;-48
2022/11/19 06:02:44;;;;;;;5.93;3.45;;;;;;;11.24;68.29;98060.09;5092476;28;20490;-48
2022/11/19 06:05:10;;;;;;;7.53;3.80;;;;;;;11.29;68.16;98066.28;5092304;28;20093;-48
2022/11/19 06:07:35;;;;;;;11.32;3.63;;;;;;;11.33;67.84;98064.03;5092372;28;20043;-49
2022/11/19 06:10:01;;;;;;;9.40;4.47;;;;;;;11.10;67.13;98062.06;5092269;28;20055;-48
2022/11/19 06:12:27;;;;;;;11.40;4.55;;;;;;;10.64;68.51;98063.31;5092248;28;20085;-48
2022/11/19 06:14:52;;;;;;;6.78;4.32;;;;;;;10.48;68.84;98056.81;5092002;28;20446;-49
2022/11/19 06:17:18;;;;;;;5.63;4.65;;;;;;;10.19;69.90;98054.56;5091678;28;20024;-49
2022/11/19 06:19:44;;;;;;;5.22;3.80;;;;;;;10.14;70.72;98056.22;5090796;28;20091;-48
2022/11/19 06:22:09;;;;;;;8.45;5.07;;;;;;;10.07;70.66;98065.97;5090718;28;20111;-48
2022/11/19 06:24:35;;;;;;;13.40;5.32;;;;;;;9.92;70.91;98067.06;5091889;28;20490;-48
2022/11/19 06:27:01;;;;;;;7.22;5.20;;;;;;;9.73;71.49;98066.16;5091993;28;20048;-48
2022/11/19 06:29:26;;;;;;;7.47;5.75;;;;;;;9.52;72.21;98061.25;5092042;28;20020;-48
2022/11/19 06:31:52;;;;;;;8.82;5.22;;;;;;;9.47;73.02;98066.28;5092243;28;20028;-48
2022/11/19 06:34:18;;;;;;;9.82;5.68;;;;;;;9.51;73.66;98073.53;5091949;28;20035;-48
2022/11/19 06:36:44;;;;;;;13.32;5.65;;;;;;;9.55;73.46;98074.72;5091857;28;20486;-48
2022/11/19 06:39:10;;;;;;;12.73;5.60;;;;;;;9.52;73.18;98080.38;5091819;28;20032;-49
2022/11/19 06:41:36;;;;;;;8.25;5.10;;;;;;;9.42;73.30;98079.19;5090633;28;20016;-48
2022/11/19 06:44:02;;;;;;;13.40;6.50;;;;;;;9.29;73.49;98083.47;5090519;28;20030;-48
2022/11/19 06:46:27;;;;;;;13.75;6.57;;;;;;;9.39;74.40;98078.59;5091815;28;20027;-48
2022/11/19 06:48:53;;;;;;;9.40;4.72;;;;;;;9.65;74.47;98076.09;5092001;28;20024;-48
2022/11/19 06:51:18;;;;;;;9.15;4.88;;;;;;;9.80;74.03;98081.88;5090478;28;20490;-48
2022/11/19 06:53:44;;;;;;;21.50;5.10;;;;;;;10.09;73.77;98085.72;5091778;28;20115;-48
2022/11/19 06:56:10;;;;;;;10.55;4.90;;;;;;;10.34;73.04;98087.56;5091628;28;20485;-48
2022/11/19 06:58:36;;;;;;;11.38;4.50;;;;;;;10.65;72.34;98091.19;5091702;28;20099;-49
2022/11/19 07:01:01;;;;;;;10.55;4.53;;;;;;;10.78;71.31;98093.69;5091648;28;20054;-48
2022/11/19 07:03:27;;;;;;;5.45;3.88;;;;;;;10.84;70.98;98098.06;5091737;28;20185;-48
2022/11/19 07:06:02;;;;;;;10.90;4.40;;;;;;;10.73;70.37;98096.16;5091581;28;20032;-48
2022/11/19 07:08:30;;;;;;;7.55;4.57;;;;;;;10.74;70.76;98093.28;5091642;28;20058;-48
2022/11/19 07:10:56;;;;;;;8.95;5.07;;;;;;;10.74;70.48;98100.38;5091484;28;20026;-48
2022/11/19 07:13:21;;;;;;;16.23;5.05;;;;;;;10.78;70.25;98102.38;5090228;28;20024;-48
2022/11/19 07:15:47;;;;;;;12.90;4.93;;;;;;;10.73;69.64;98099.59;5091459;28;20101;-48
2022/11/19 07:18:13;;;;;;;8.70;3.95;;;;;;;10.56;69.98;98104.59;5090253;28;20028;-48
2022/11/19 07:20:38;;;;;;;9.15;4.60;;;;;;;10.56;70.22;98106.38;5073452;28;20016;-48
2022/11/19 07:23:09;;;;;;;7.85;4.13;;;;;;;10.65;70.12;98106.94;5090141;28;20032;-48
2022/11/19 07:25:35;;;;;;;13.02;5.45;;;;;;;10.71;69.78;98099.00;5091224;28;20054;-48
2022/11/19 07:28:00;;;;;;;7.80;4.95;;;;;;;10.68;69.21;98104.66;5092661;28;20111;-48
2022/11/19 07:30:26;;;;;;;11.73;5.47;;;;;;;10.62;69.74;98110.75;5095285;28;20031;-48
2022/11/19 07:32:53;;;;;;;9.85;5.70;;;;;;;10.52;70.05;98113.91;5093860;28;20077;-48
2022/11/19 07:35:18;;;;;;;22.05;5.63;;;;;;;10.79;71.09;98113.66;5093758;28;20479;-48
2022/11/19 07:37:44;;;;;;;9.77;4.93;;;;;;;11.24;69.87;98123.94;5095096;28;20032;-48
2022/11/19 07:40:10;;;;;;;12.68;4.50;;;;;;;11.23;67.46;98124.13;5095058;28;20024;-48
2022/11/19 07:42:48;;;;;;;7.15;3.70;;;;;;;11.13;68.02;98122.84;5095284;28;20472;-48
2022/11/19 07:45:15;;;;;;;8.32;4.50;;;;;;;11.40;67.91;98128.59;5093959;28;20032;-48
2022/11/19 07:47:41;;;;;;;9.40;3.95;;;;;;;11.54;67.34;98126.63;5093644;28;20028;-48
2022/11/19 07:50:07;;;;;;;9.57;4.32;;;;;;;11.74;67.33;98129.03;5094845;28;20020;-48
2022/11/19 07:52:33;;;;;;;9.13;3.75;;;;;;;11.99;66.08;98128.94;5094875;28;20031;-48
2022/11/19 07:54:59;;;;;;;12.50;4.35;;;;;;;11.92;65.92;98132.69;5094731;28;20020;-48
2022/11/19 07:57:25;;;;;;;9.20;4.22;;;;;;;11.83;66.06;98136.59;5094769;28;20047;-48
2022/11/19 07:59:51;;;;;;;10.57;4.68;;;;;;;11.95;66.27;98140.94;5093453;28;20067;-48
2022/11/19 08:02:16;;;;;;;9.68;3.72;;;;;;;12.10;66.13;98143.16;5093375;28;20020;-48
2022/11/19 08:04:42;;;;;;;13.32;3.40;;;;;;;12.32;65.08;98145.28;5093276;28;20506;-48
2022/11/19 08:07:08;;;;;;;16.63;4.22;;;;;;;12.53;64.95;98149.22;5093308;28;20028;-48
2022/11/19 08:09:33;;;;;;;10.73;3.20;;;;;;;12.67;63.41;98152.44;5093254;28;20432;-48
2022/11/19 08:11:59;;;;;;;10.18;3.53;;;;;;;12.65;63.13;98150.03;5093132;28;20354;-48
2022/11/19 08:14:25;;;;;;;20.63;6.22;;;;;;;12.67;62.85;98152.44;5094440;28;20027;-48
2022/11/19 08:19:35;;;;;;;61.28;54.53;;;;;;;12.57;63.06;98150.38;5094408;28;20043;-48
2022/11/19 08:22:00;;;;;;;41.90;37.03;;;;;;;12.48;63.00;98154.38;5076164;28;20111;-48
2022/11/19 08:24:26;;;;;;;10.18;5.07;;;;;;;12.42;63.70;98157.91;5094020;28;20111;-48
2022/11/19 08:26:51;;;;;;;12.82;3.28;;;;;;;12.52;63.60;98155.53;5094150;28;20027;-48
2022/11/19 08:29:20;;;;;;;6.90;3.70;;;;;;;12.91;62.87;98156.69;5094128;28;20023;-48
2022/11/19 08:31:47;;;;;;;6.03;3.10;;;;;;;13.25;62.09;98153.50;5092697;28;20432;-48
2022/11/19 08:34:14;;;;;;;7.05;3.83;;;;;;;13.36;61.40;98155.34;5094068;28;20070;-48
2022/11/19 08:36:40;;;;;;;7.00;3.40;;;;;;;13.47;61.08;98161.66;5093938;28;20026;-48
2022/11/19 08:39:06;;;;;;;8.48;3.20;;;;;;;13.51;60.69;98160.16;5093247;28;20106;-48
2022/11/19 08:44:16;;;;;;;15.18;3.58;;;;;;;13.42;59.92;98164.16;5094188;28;20022;-48
2022/11/19 08:46:42;;;;;;;8.10;3.15;;;;;;;13.33;59.83;98159.25;5094007;28;20032;-48
2022/11/19 08:49:08;;;;;;;5.70;2.97;;;;;;;13.18;60.42;98161.53;5092436;28;20498;-48
2022/11/19 08:51:34;;;;;;;8.10;2.35;;;;;;;13.15;60.67;98159.34;5092393;28;20029;-48
2022/11/19 08:54:00;;;;;;;8.07;2.90;;;;;;;13.11;60.26;98161.63;5092318;28;20026;-48
2022/11/19 08:56:25;;;;;;;7.53;3.13;;;;;;;13.06;60.69;98166.81;5092362;28;20020;-48
2022/11/19 08:58:53;;;;;;;6.35;2.00;;;;;;;13.07;60.12;98167.59;5093594;28;20103;-48
2022/11/19 09:01:20;;;;;;;12.27;3.25;;;;;;;13.07;59.78;98170.22;5093427;28;20030;-48
2022/11/19 09:03:45;;;;;;;10.23;3.60;;;;;;;13.10;60.05;98159.22;5093514;28;20028;-48
2022/11/19 09:06:12;;;;;;;8.65;3.75;;;;;;;13.23;59.63;98163.47;5093395;28;20032;-48
2022/11/19 09:08:39;;;;;;;7.78;2.40;;;;;;;13.30;59.37;98166.81;5093397;28;20036;-48
2022/11/19 09:11:13;;;;;;;4.22;2.00;;;;;;;13.39;59.34;98160.97;5093287;28;20028;-48
2022/11/19 09:13:39;;;;;;;5.63;1.95;;;;;;;13.50;58.53;98163.81;5093399;28;20490;-48
2022/11/19 09:16:06;;;;;;;4.43;2.10;;;;;;;13.66;58.57;98165.75;5091842;28;20020;-48
2022/11/19 09:18:31;;;;;;;5.40;2.13;;;;;;;13.91;58.40;98162.00;5091899;28;20093;-48
2022/11/19 09:20:58;;;;;;;8.73;3.05;;;;;;;14.14;57.62;98167.16;5093111;28;20023;-48
2022/11/19 09:23:25;;;;;;;4.68;2.13;;;;;;;14.54;57.39;98157.56;5092836;28;20016;-49
2022/11/19 09:26:04;;;;;;;5.60;2.10;;;;;;;14.89;55.17;98159.19;5093027;28;20032;-48
2022/11/19 09:28:30;;;;;;;8.13;2.15;;;;;;;14.87;54.74;98153.34;5093303;28;20074;-48
2022/11/19 09:31:06;;;;;;;5.28;1.85;;;;;;;15.15;55.08;98155.09;5092943;28;20027;-48
2022/11/19 09:33:33;;;;;;;4.85;2.22;;;;;;;15.14;54.28;98151.66;5093253;28;20066;-48
2022/11/19 09:35:59;;;;;;;4.78;1.60;;;;;;;15.07;54.01;98151.03;5092761;28;20024;-48
2022/11/19 09:38:25;;;;;;;2.88;1.77;;;;;;;15.18;53.68;98150.13;5092830;28;20028;-48
2022/11/19 09:40:56;;;;;;;4.45;1.55;;;;;;;15.38;53.65;98152.25;5092755;28;20028;-48
2022/11/19 09:43:49;;;;;;;3.05;1.45;;;;;;;15.82;53.27;98153.34;5092778;28;20039;-48
2022/11/19 09:46:21;;;;;;;4.50;1.50;;;;;;;16.20;51.96;98151.59;5092906;28;20027;-48
2022/11/19 09:48:49;;;;;;;4.65;1.60;;;;;;;16.32;50.89;98158.38;5092707;28;20028;-46
2022/11/19 09:51:20;;;;;;;4.28;1.48;;;;;;;16.33;50.04;98161.81;5091663;28;20031;-46
2022/11/19 09:54:12;;;;;;;2.88;1.50;;;;;;;16.21;49.50;98156.66;5092605;28;20036;-46
2022/11/19 09:56:42;;;;;;;4.68;1.48;;;;;;;16.08;50.40;98162.38;5089189;28;20036;-46
2022/11/19 09:59:34;;;;;;;3.55;1.40;;;;;;;15.90;51.01;98159.00;5092505;28;20060;-46
2022/11/19 10:02:00;;;;;;;4.90;1.63;;;;;;;16.04;51.46;98167.34;5092480;28;20170;-45
2022/11/19 10:04:32;;;;;;;6.43;1.80;;;;;;;16.21;50.42;98169.09;5091447;28;20027;-46
2022/11/19 10:07:30;;;;;;;7.30;1.67;;;;;;;16.11;50.49;98161.84;5092572;28;20363;-46
2022/11/19 10:10:14;;;;;;;3.53;1.42;;;;;;;15.94;50.60;98167.25;5092343;28;20494;-46
2022/11/19 10:12:42;;;;;;;3.20;1.38;;;;;;;15.69;50.63;98173.78;5091016;28;20034;-46
2022/11/19 10:15:23;;;;;;;4.40;1.23;;;;;;;15.79;50.94;98165.19;5092141;28;20111;-45
2022/11/19 10:17:54;;;;;;;3.67;1.70;;;;;;;16.82;49.55;98171.53;5092194;28;20028;-46
2022/11/19 10:20:35;;;;;;;4.93;1.52;;;;;;;17.21;48.30;98173.94;5092251;28;20028;-45
2022/11/19 10:23:41;;;;;;;6.10;1.88;;;;;;;18.34;46.58;98160.03;5092196;28;20570;-46
2022/11/19 10:26:14;;;;;;;5.88;1.80;;;;;;;17.95;45.74;98159.72;5092090;28;20115;-45
2022/11/19 10:28:47;;;;;;;4.18;1.50;;;;;;;17.29;46.46;98163.63;5092347;28;20042;-45
2022/11/19 10:31:32;;;;;;;4.60;1.95;;;;;;;16.74;47.20;98156.84;5074653;28;20077;-46
2022/11/19 10:34:09;;;;;;;3.97;1.27;;;;;;;16.20;47.87;98160.38;5092273;28;20489;-45
2022/11/19 10:36:41;;;;;;;6.47;1.25;;;;;;;15.64;48.80;98163.16;5090603;28;20347;-45
2022/11/19 10:39:21;;;;;;;4.65;1.17;;;;;;;15.17;50.32;98174.16;5090648;28;20066;-46
2022/11/19 10:42:18;;;;;;;5.35;1.35;;;;;;;15.18;51.59;98165.97;5091907;28;20031;-46
2022/11/19 10:45:14;;;;;;;6.40;1.55;;;;;;;17.16;50.07;98162.25;5057624;28;20100;-46
2022/11/19 10:47:46;;;;;;;5.03;1.40;;;;;;;18.98;44.51;98154.50;5091019;28;20394;-46
2022/11/19 10:50:38;;;;;;;3.08;1.20;;;;;;;20.38;41.89;98159.03;5091887;28;20478;-46
2022/11/19 10:53:31;;;;;;;27.80;2.50;;;;;;;19.79;39.95;98155.38;5086753;28;20051;-45
2022/11/19 10:56:04;;;;;;;18.58;1.63;;;;;;;18.77;40.99;98147.31;5085028;28;20505;-46
2022/11/19 10:58:36;;;;;;;70.25;4.20;;;;;;;17.89;42.34;98150.94;5092069;28;20020;-45
2022/11/19 11:01:10;;;;;;;13.50;1.63;;;;;;;17.32;43.99;98149.84;5090512;28;20394;-45
2022/11/19 11:03:49;;;;;;;4.70;1.58;;;;;;;17.70;43.95;98161.16;5095464;28;20024;-45
2022/11/19 11:06:15;;;;;;;4.95;1.40;;;;;;;17.66;44.42;98153.97;5094526;28;20043;-46
2022/11/19 11:08:49;;;;;;;3.40;1.35;;;;;;;17.98;43.84;98140.59;5095719;28;20020;-45
2022/11/19 11:17:03;;;;;;;13.73;1.80;;;;;;;17.66;44.55;98144.16;5094610;28;20031;-46
2022/11/19 11:19:30;;;;;;;6.05;2.25;;;;;;;17.40;45.18;98142.47;5095500;28;20025;-46
2022/11/19 11:21:56;;;;;;;5.10;1.30;;;;;;;17.16;45.65;98142.84;5077472;28;20118;-45
2022/11/19 11:24:32;;;;;;;6.35;1.80;;;;;;;16.87;46.60;98142.41;5095255;28;20119;-46
2022/11/19 11:27:18;;;;;;;4.88;1.50;;;;;;;16.47;46.92;98144.47;5095444;28;20035;-46
2022/11/19 11:29:44;;;;;;;6.05;1.55;;;;;;;16.10;47.67;98139.88;5095244;28;20039;-46
2022/11/19 11:32:29;;;;;;;5.78;2.65;;;;;;;15.47;49.37;98147.31;5095279;28;20024;-46
2022/11/19 11:34:55;;;;;;;4.43;1.52;;;;;;;15.25;50.21;98135.94;5095420;28;20031;-45
2022/11/19 11:37:22;;;;;;;4.70;1.35;;;;;;;15.27;50.41;98139.13;5093841;28;20572;-46
2022/11/19 11:39:51;;;;;;;4.30;1.35;;;;;;;15.20;49.61;98127.94;5095155;28;20017;-45
2022/11/19 11:42:18;;;;;;;7.20;1.10;;;;;;;14.97;49.79;98142.97;5095071;28;20016;-46
2022/11/19 11:45:19;;;;;;;5.47;1.00;;;;;;;14.82;49.68;98135.59;5095075;28;20020;-46
2022/11/19 11:47:45;;;;;;;3.17;1.15;;;;;;;14.57;49.61;98138.66;5093612;28;20035;-45
2022/11/19 11:50:19;;;;;;;3.83;1.05;;;;;;;14.61;50.24;98131.03;5094849;28;20036;-45
2022/11/19 11:52:50;;;;;;;3.63;1.30;;;;;;;14.97;49.96;98140.31;5095182;28;20567;-45
2022/11/19 11:55:22;;;;;;;5.35;1.17;;;;;;;15.14;49.71;98132.34;5094768;28;20564;-46
2022/11/19 11:57:55;;;;;;;12.23;1.20;;;;;;;15.13;49.92;98125.47;5094875;28;20095;-46
2022/11/19 12:00:32;;;;;;;6.50;1.45;;;;;;;15.05;50.39;98131.97;5094986;28;20025;-46